sensor_id;sensor_type;location;lat;lon;timestamp;P1;durP1;ratioP1;P2;durP2;ratioP2
56299;SDS011;42209;6.376;-10.782;2023-11-19T00:07:18;11.02;;;7.05;;
56299;SDS011;42209;6.376;-10.782;2023-11-19T00:09:47;10.05;;;7.50;;
56299;SDS011;42209;6.376;-10.782;2023-11-19T00:12:16;10.13;;;6.45;;
56299;SDS011;42209;6.376;-10.782;2023-11-19T00:14:45;10.13;;;6.28;;
56299;SDS011;42209;6.376;-10.782;2023-11-19T00:17:13;9.57;;;7.82;;
56299;SDS011;42209;6.376;-10.782;2023-11-19T00:22:10;9.20;;;6.65;;
56299;SDS011;42209;6.376;-10.782;2023-11-19T00:24:39;8.95;;;6.97;;
56299;SDS011;42209;6.376;-10.782;2023-11-19T00:27:07;10.43;;;6.75;;
56299;SDS011;42209;6.376;-10.782;2023-11-19T00:29:38;9.77;;;6.85;;
56299;SDS011;42209;6.376;-10.782;2023-11-19T00:34:35;11.65;;;7.60;;
56299;SDS011;42209;6.376;-10.782;2023-11-19T00:37:04;10.05;;;7.93;;
56299;SDS011;42209;6.376;-10.782;2023-11-19T00:42:01;9.65;;;7.45;;
56299;SDS011;42209;6.376;-10.782;2023-11-19T00:46:58;9.95;;;6.75;;
56299;SDS011;42209;6.376;-10.782;2023-11-19T00:49:26;11.23;;;7.80;;
56299;SDS011;42209;6.376;-10.782;2023-11-19T00:54:23;10.43;;;7.30;;
56299;SDS011;42209;6.376;-10.782;2023-11-19T00:56:52;11.07;;;7.30;;
56299;SDS011;42209;6.376;-10.782;2023-11-19T01:01:49;11.85;;;8.07;;
56299;SDS011;42209;6.376;-10.782;2023-11-19T01:04:18;8.82;;;6.93;;
56299;SDS011;42209;6.376;-10.782;2023-11-19T01:06:47;10.02;;;7.47;;
56299;SDS011;42209;6.376;-10.782;2023-11-19T01:09:16;10.52;;;8.10;;
56299;SDS011;42209;6.376;-10.782;2023-11-19T01:11:45;12.05;;;9.45;;
56299;SDS011;42209;6.376;-10.782;2023-11-19T01:14:14;12.93;;;9.18;;
56299;SDS011;42209;6.376;-10.782;2023-11-19T01:16:42;10.98;;;7.82;;
56299;SDS011;42209;6.376;-10.782;2023-11-19T01:19:11;12.82;;;8.35;;
56299;SDS011;42209;6.376;-10.782;2023-11-19T01:21:44;11.68;;;8.15;;
56299;SDS011;42209;6.376;-10.782;2023-11-19T01:24:12;13.05;;;8.93;;
56299;SDS011;42209;6.376;-10.782;2023-11-19T01:26:41;11.73;;;8.02;;
56299;SDS011;42209;6.376;-10.782;2023-11-19T01:29:12;11.90;;;8.75;;
56299;SDS011;42209;6.376;-10.782;2023-11-19T01:31:45;12.95;;;8.40;;
56299;SDS011;42209;6.376;-10.782;2023-11-19T01:34:14;10.10;;;7.57;;
56299;SDS011;42209;6.376;-10.782;2023-11-19T01:36:43;10.65;;;7.88;;
56299;SDS011;42209;6.376;-10.782;2023-11-19T01:39:11;13.55;;;8.18;;
56299;SDS011;42209;6.376;-10.782;2023-11-19T01:41:40;9.02;;;7.90;;
56299;SDS011;42209;6.376;-10.782;2023-11-19T01:44:08;9.75;;;7.15;;
56299;SDS011;42209;6.376;-10.782;2023-11-19T01:46:37;9.93;;;7.28;;
56299;SDS011;42209;6.376;-10.782;2023-11-19T01:49:08;11.93;;;8.23;;
56299;SDS011;42209;6.376;-10.782;2023-11-19T01:51:38;9.82;;;7.53;;
56299;SDS011;42209;6.376;-10.782;2023-11-19T01:54:07;9.93;;;7.60;;
56299;SDS011;42209;6.376;-10.782;2023-11-19T01:56:37;10.90;;;7.85;;
56299;SDS011;42209;6.376;-10.782;2023-11-19T01:59:09;10.35;;;7.03;;
56299;SDS011;42209;6.376;-10.782;2023-11-19T02:01:38;10.77;;;7.38;;
56299;SDS011;42209;6.376;-10.782;2023-11-19T02:04:08;8.38;;;6.38;;
56299;SDS011;42209;6.376;-10.782;2023-11-19T02:06:38;11.02;;;6.60;;
56299;SDS011;42209;6.376;-10.782;2023-11-19T02:09:10;9.98;;;7.20;;
56299;SDS011;42209;6.376;-10.782;2023-11-19T02:11:42;8.75;;;5.90;;
56299;SDS011;42209;6.376;-10.782;2023-11-19T02:14:10;9.90;;;6.78;;
56299;SDS011;42209;6.376;-10.782;2023-11-19T02:16:39;9.93;;;7.35;;
56299;SDS011;42209;6.376;-10.782;2023-11-19T02:19:08;10.77;;;6.88;;
56299;SDS011;42209;6.376;-10.782;2023-11-19T02:21:37;8.35;;;6.60;;
56299;SDS011;42209;6.376;-10.782;2023-11-19T02:29:37;8.85;;;6.28;;
56299;SDS011;42209;6.376;-10.782;2023-11-19T02:32:05;9.70;;;6.53;;
56299;SDS011;42209;6.376;-10.782;2023-11-19T02:34:35;11.52;;;6.30;;
56299;SDS011;42209;6.376;-10.782;2023-11-19T02:37:03;8.90;;;6.25;;
56299;SDS011;42209;6.376;-10.782;2023-11-19T02:39:32;10.95;;;6.78;;
56299;SDS011;42209;6.376;-10.782;2023-11-19T02:42:01;9.55;;;6.22;;
56299;SDS011;42209;6.376;-10.782;2023-11-19T02:44:30;11.55;;;6.35;;
56299;SDS011;42209;6.376;-10.782;2023-11-19T02:46:58;13.82;;;6.57;;
56299;SDS011;42209;6.376;-10.782;2023-11-19T02:49:27;8.93;;;5.88;;
56299;SDS011;42209;6.376;-10.782;2023-11-19T02:51:56;10.13;;;5.88;;
56299;SDS011;42209;6.376;-10.782;2023-11-19T02:54:25;7.68;;;5.57;;
56299;SDS011;42209;6.376;-10.782;2023-11-19T02:56:53;8.60;;;6.00;;
56299;SDS011;42209;6.376;-10.782;2023-11-19T03:01:50;8.70;;;5.13;;
56299;SDS011;42209;6.376;-10.782;2023-11-19T03:04:19;8.32;;;5.40;;
56299;SDS011;42209;6.376;-10.782;2023-11-19T03:06:49;10.05;;;5.75;;
56299;SDS011;42209;6.376;-10.782;2023-11-19T03:11:46;8.13;;;4.80;;
56299;SDS011;42209;6.376;-10.782;2023-11-19T03:19:15;7.47;;;4.05;;
56299;SDS011;42209;6.376;-10.782;2023-11-19T03:21:47;8.70;;;4.72;;
56299;SDS011;42209;6.376;-10.782;2023-11-19T03:24:17;7.57;;;4.43;;
56299;SDS011;42209;6.376;-10.782;2023-11-19T03:26:50;7.05;;;5.05;;
56299;SDS011;42209;6.376;-10.782;2023-11-19T03:29:19;7.50;;;5.10;;
56299;SDS011;42209;6.376;-10.782;2023-11-19T03:31:48;6.22;;;4.47;;
56299;SDS011;42209;6.376;-10.782;2023-11-19T03:34:17;5.47;;;4.20;;
56299;SDS011;42209;6.376;-10.782;2023-11-19T03:39:14;6.95;;;3.60;;
56299;SDS011;42209;6.376;-10.782;2023-11-19T03:41:45;6.28;;;4.03;;
56299;SDS011;42209;6.376;-10.782;2023-11-19T03:44:14;7.35;;;4.60;;
56299;SDS011;42209;6.376;-10.782;2023-11-19T03:46:42;7.68;;;4.00;;
56299;SDS011;42209;6.376;-10.782;2023-11-19T03:51:39;7.47;;;4.82;;
56299;SDS011;42209;6.376;-10.782;2023-11-19T03:54:08;4.50;;;3.40;;
56299;SDS011;42209;6.376;-10.782;2023-11-19T03:56:36;5.43;;;3.45;;
56299;SDS011;42209;6.376;-10.782;2023-11-19T03:59:04;6.85;;;4.22;;
56299;SDS011;42209;6.376;-10.782;2023-11-19T04:01:33;5.03;;;4.03;;
56299;SDS011;42209;6.376;-10.782;2023-11-19T04:06:30;4.65;;;3.15;;
56299;SDS011;42209;6.376;-10.782;2023-11-19T04:11:27;5.57;;;3.83;;
56299;SDS011;42209;6.376;-10.782;2023-11-19T04:13:56;4.70;;;3.65;;
56299;SDS011;42209;6.376;-10.782;2023-11-19T04:16:27;4.97;;;4.03;;
56299;SDS011;42209;6.376;-10.782;2023-11-19T04:18:56;4.70;;;3.65;;
56299;SDS011;42209;6.376;-10.782;2023-11-19T04:21:25;7.40;;;3.80;;
56299;SDS011;42209;6.376;-10.782;2023-11-19T04:23:53;5.00;;;3.80;;
56299;SDS011;42209;6.376;-10.782;2023-11-19T04:26:22;6.05;;;3.13;;
56299;SDS011;42209;6.376;-10.782;2023-11-19T04:28:50;5.57;;;3.60;;
56299;SDS011;42209;6.376;-10.782;2023-11-19T04:31:19;5.65;;;4.00;;
56299;SDS011;42209;6.376;-10.782;2023-11-19T04:33:48;6.18;;;3.72;;
56299;SDS011;42209;6.376;-10.782;2023-11-19T04:36:18;4.65;;;3.22;;
56299;SDS011;42209;6.376;-10.782;2023-11-19T04:38:47;7.55;;;3.40;;
56299;SDS011;42209;6.376;-10.782;2023-11-19T04:43:43;4.40;;;3.00;;
56299;SDS011;42209;6.376;-10.782;2023-11-19T04:48:40;7.07;;;3.65;;
56299;SDS011;42209;6.376;-10.782;2023-11-19T04:51:09;5.25;;;3.13;;
56299;SDS011;42209;6.376;-10.782;2023-11-19T04:53:37;5.38;;;2.78;;
56299;SDS011;42209;6.376;-10.782;2023-11-19T04:56:12;5.07;;;2.95;;
56299;SDS011;42209;6.376;-10.782;2023-11-19T04:58:40;5.20;;;3.55;;
56299;SDS011;42209;6.376;-10.782;2023-11-19T05:01:13;5.47;;;3.08;;
56299;SDS011;42209;6.376;-10.782;2023-11-19T05:03:42;6.72;;;3.35;;
56299;SDS011;42209;6.376;-10.782;2023-11-19T05:06:11;4.97;;;2.90;;
56299;SDS011;42209;6.376;-10.782;2023-11-19T05:08:39;4.70;;;3.08;;
56299;SDS011;42209;6.376;-10.782;2023-11-19T05:11:08;6.65;;;2.95;;
56299;SDS011;42209;6.376;-10.782;2023-11-19T05:16:05;3.85;;;2.47;;
56299;SDS011;42209;6.376;-10.782;2023-11-19T05:18:34;5.25;;;2.80;;
56299;SDS011;42209;6.376;-10.782;2023-11-19T05:21:03;4.95;;;2.80;;
56299;SDS011;42209;6.376;-10.782;2023-11-19T05:23:31;4.85;;;3.05;;
56299;SDS011;42209;6.376;-10.782;2023-11-19T05:26:01;4.50;;;2.58;;
56299;SDS011;42209;6.376;-10.782;2023-11-19T05:28:34;5.93;;;3.03;;
56299;SDS011;42209;6.376;-10.782;2023-11-19T05:31:02;5.40;;;2.95;;
56299;SDS011;42209;6.376;-10.782;2023-11-19T05:35:59;3.38;;;2.55;;
56299;SDS011;42209;6.376;-10.782;2023-11-19T05:38:27;5.07;;;2.40;;
56299;SDS011;42209;6.376;-10.782;2023-11-19T05:40:56;6.70;;;2.72;;
56299;SDS011;42209;6.376;-10.782;2023-11-19T05:43:24;4.25;;;2.83;;
56299;SDS011;42209;6.376;-10.782;2023-11-19T05:45:53;4.50;;;2.83;;
56299;SDS011;42209;6.376;-10.782;2023-11-19T05:48:21;3.78;;;2.60;;
56299;SDS011;42209;6.376;-10.782;2023-11-19T05:50:50;3.28;;;2.10;;
56299;SDS011;42209;6.376;-10.782;2023-11-19T05:53:18;4.25;;;2.55;;
56299;SDS011;42209;6.376;-10.782;2023-11-19T05:55:46;4.60;;;2.80;;
56299;SDS011;42209;6.376;-10.782;2023-11-19T06:00:43;6.13;;;2.60;;
56299;SDS011;42209;6.376;-10.782;2023-11-19T06:03:15;3.50;;;2.10;;
56299;SDS011;42209;6.376;-10.782;2023-11-19T06:05:47;4.30;;;2.40;;
56299;SDS011;42209;6.376;-10.782;2023-11-19T06:08:16;7.28;;;2.63;;
56299;SDS011;42209;6.376;-10.782;2023-11-19T06:10:45;5.47;;;2.38;;
56299;SDS011;42209;6.376;-10.782;2023-11-19T06:13:13;4.30;;;2.58;;
56299;SDS011;42209;6.376;-10.782;2023-11-19T06:15:42;4.40;;;2.55;;
56299;SDS011;42209;6.376;-10.782;2023-11-19T06:20:40;3.33;;;2.53;;
56299;SDS011;42209;6.376;-10.782;2023-11-19T06:23:09;4.45;;;2.00;;
56299;SDS011;42209;6.376;-10.782;2023-11-19T06:25:38;4.47;;;2.30;;
56299;SDS011;42209;6.376;-10.782;2023-11-19T06:28:06;4.78;;;2.63;;
56299;SDS011;42209;6.376;-10.782;2023-11-19T06:30:35;3.78;;;1.85;;
56299;SDS011;42209;6.376;-10.782;2023-11-19T06:33:03;3.38;;;2.05;;
56299;SDS011;42209;6.376;-10.782;2023-11-19T06:35:32;3.97;;;1.83;;
56299;SDS011;42209;6.376;-10.782;2023-11-19T06:38:00;3.72;;;2.08;;
56299;SDS011;42209;6.376;-10.782;2023-11-19T06:40:33;3.45;;;2.00;;
56299;SDS011;42209;6.376;-10.782;2023-11-19T06:43:02;4.53;;;1.83;;
56299;SDS011;42209;6.376;-10.782;2023-11-19T06:45:31;3.15;;;1.75;;
56299;SDS011;42209;6.376;-10.782;2023-11-19T06:48:03;4.18;;;2.40;;
56299;SDS011;42209;6.376;-10.782;2023-11-19T06:50:32;3.60;;;1.92;;
56299;SDS011;42209;6.376;-10.782;2023-11-19T06:55:29;3.20;;;1.80;;
56299;SDS011;42209;6.376;-10.782;2023-11-19T06:57:59;2.47;;;1.83;;
56299;SDS011;42209;6.376;-10.782;2023-11-19T07:00:28;3.92;;;2.00;;
56299;SDS011;42209;6.376;-10.782;2023-11-19T07:02:56;3.15;;;1.50;;
56299;SDS011;42209;6.376;-10.782;2023-11-19T07:05:26;5.25;;;2.05;;
56299;SDS011;42209;6.376;-10.782;2023-11-19T07:07:54;3.80;;;2.65;;
56299;SDS011;42209;6.376;-10.782;2023-11-19T07:10:23;2.92;;;1.70;;
56299;SDS011;42209;6.376;-10.782;2023-11-19T07:15:19;2.67;;;1.77;;
56299;SDS011;42209;6.376;-10.782;2023-11-19T07:17:48;2.75;;;1.60;;
56299;SDS011;42209;6.376;-10.782;2023-11-19T07:20:28;3.00;;;1.60;;
56299;SDS011;42209;6.376;-10.782;2023-11-19T07:22:57;5.65;;;1.95;;
56299;SDS011;42209;6.376;-10.782;2023-11-19T07:25:25;3.42;;;2.00;;
56299;SDS011;42209;6.376;-10.782;2023-11-19T07:27:54;4.22;;;2.03;;
56299;SDS011;42209;6.376;-10.782;2023-11-19T07:30:22;3.00;;;1.85;;
56299;SDS011;42209;6.376;-10.782;2023-11-19T07:32:51;4.65;;;2.13;;
56299;SDS011;42209;6.376;-10.782;2023-11-19T07:35:19;3.80;;;2.08;;
56299;SDS011;42209;6.376;-10.782;2023-11-19T07:37:48;3.97;;;1.67;;
56299;SDS011;42209;6.376;-10.782;2023-11-19T07:40:16;3.90;;;1.73;;
56299;SDS011;42209;6.376;-10.782;2023-11-19T07:42:45;3.45;;;1.83;;
56299;SDS011;42209;6.376;-10.782;2023-11-19T07:45:13;3.75;;;2.20;;
56299;SDS011;42209;6.376;-10.782;2023-11-19T07:47:42;2.85;;;1.50;;
56299;SDS011;42209;6.376;-10.782;2023-11-19T07:52:39;3.63;;;2.10;;
56299;SDS011;42209;6.376;-10.782;2023-11-19T07:57:36;3.45;;;1.90;;
56299;SDS011;42209;6.376;-10.782;2023-11-19T08:00:04;2.55;;;1.42;;
56299;SDS011;42209;6.376;-10.782;2023-11-19T08:02:38;3.47;;;1.92;;
56299;SDS011;42209;6.376;-10.782;2023-11-19T08:05:07;2.55;;;1.77;;
56299;SDS011;42209;6.376;-10.782;2023-11-19T08:07:36;2.55;;;1.67;;
56299;SDS011;42209;6.376;-10.782;2023-11-19T08:10:04;2.92;;;1.90;;
56299;SDS011;42209;6.376;-10.782;2023-11-19T08:12:33;3.00;;;1.83;;
56299;SDS011;42209;6.376;-10.782;2023-11-19T08:15:02;3.33;;;2.05;;
56299;SDS011;42209;6.376;-10.782;2023-11-19T08:17:31;4.30;;;1.75;;
56299;SDS011;42209;6.376;-10.782;2023-11-19T08:19:59;3.35;;;2.00;;
56299;SDS011;42209;6.376;-10.782;2023-11-19T08:22:28;4.75;;;2.25;;
56299;SDS011;42209;6.376;-10.782;2023-11-19T08:24:56;4.53;;;1.80;;
56299;SDS011;42209;6.376;-10.782;2023-11-19T08:27:25;3.28;;;1.98;;
56299;SDS011;42209;6.376;-10.782;2023-11-19T08:32:25;3.72;;;2.15;;
56299;SDS011;42209;6.376;-10.782;2023-11-19T08:34:55;3.80;;;2.17;;
56299;SDS011;42209;6.376;-10.782;2023-11-19T08:37:23;3.80;;;1.98;;
56299;SDS011;42209;6.376;-10.782;2023-11-19T08:39:53;4.53;;;2.55;;
56299;SDS011;42209;6.376;-10.782;2023-11-19T08:42:21;4.63;;;2.67;;
56299;SDS011;42209;6.376;-10.782;2023-11-19T08:44:50;5.28;;;2.20;;
56299;SDS011;42209;6.376;-10.782;2023-11-19T08:47:20;3.95;;;2.13;;
56299;SDS011;42209;6.376;-10.782;2023-11-19T08:49:50;4.55;;;2.05;;
56299;SDS011;42209;6.376;-10.782;2023-11-19T08:52:22;3.50;;;2.08;;
56299;SDS011;42209;6.376;-10.782;2023-11-19T08:54:50;3.28;;;2.38;;
56299;SDS011;42209;6.376;-10.782;2023-11-19T08:57:19;2.97;;;1.40;;
56299;SDS011;42209;6.376;-10.782;2023-11-19T08:59:47;4.57;;;2.17;;
56299;SDS011;42209;6.376;-10.782;2023-11-19T09:02:15;5.32;;;2.40;;
56299;SDS011;42209;6.376;-10.782;2023-11-19T09:04:44;3.97;;;2.10;;
56299;SDS011;42209;6.376;-10.782;2023-11-19T09:07:12;6.70;;;2.22;;
56299;SDS011;42209;6.376;-10.782;2023-11-19T09:09:41;3.38;;;2.42;;
56299;SDS011;42209;6.376;-10.782;2023-11-19T09:14:38;4.82;;;3.30;;
56299;SDS011;42209;6.376;-10.782;2023-11-19T09:17:06;4.25;;;2.78;;
56299;SDS011;42209;6.376;-10.782;2023-11-19T09:22:05;3.75;;;2.50;;
56299;SDS011;42209;6.376;-10.782;2023-11-19T09:24:33;5.18;;;2.20;;
56299;SDS011;42209;6.376;-10.782;2023-11-19T09:29:33;3.95;;;2.33;;
56299;SDS011;42209;6.376;-10.782;2023-11-19T09:32:02;3.75;;;1.92;;
56299;SDS011;42209;6.376;-10.782;2023-11-19T09:34:32;3.65;;;2.63;;
56299;SDS011;42209;6.376;-10.782;2023-11-19T09:37:05;8.30;;;2.58;;
56299;SDS011;42209;6.376;-10.782;2023-11-19T09:39:50;6.88;;;2.40;;
56299;SDS011;42209;6.376;-10.782;2023-11-19T09:42:20;4.53;;;2.47;;
56299;SDS011;42209;6.376;-10.782;2023-11-19T09:44:54;5.45;;;2.35;;
56299;SDS011;42209;6.376;-10.782;2023-11-19T09:47:33;4.57;;;2.35;;
56299;SDS011;42209;6.376;-10.782;2023-11-19T09:50:02;3.67;;;1.95;;
56299;SDS011;42209;6.376;-10.782;2023-11-19T09:52:30;5.15;;;2.40;;
56299;SDS011;42209;6.376;-10.782;2023-11-19T09:54:59;7.32;;;2.55;;
56299;SDS011;42209;6.376;-10.782;2023-11-19T09:57:27;7.22;;;2.97;;
56299;SDS011;42209;6.376;-10.782;2023-11-19T09:59:59;6.88;;;2.80;;
56299;SDS011;42209;6.376;-10.782;2023-11-19T10:02:33;4.63;;;2.53;;
56299;SDS011;42209;6.376;-10.782;2023-11-19T10:05:06;5.90;;;2.60;;
56299;SDS011;42209;6.376;-10.782;2023-11-19T10:07:35;5.90;;;2.38;;
56299;SDS011;42209;6.376;-10.782;2023-11-19T10:10:04;5.72;;;2.78;;
56299;SDS011;42209;6.376;-10.782;2023-11-19T10:12:33;6.70;;;3.42;;
56299;SDS011;42209;6.376;-10.782;2023-11-19T10:15:07;6.97;;;3.50;;
56299;SDS011;42209;6.376;-10.782;2023-11-19T10:17:44;6.78;;;3.50;;
56299;SDS011;42209;6.376;-10.782;2023-11-19T10:20:13;6.05;;;3.38;;
56299;SDS011;42209;6.376;-10.782;2023-11-19T10:22:42;5.97;;;3.28;;
56299;SDS011;42209;6.376;-10.782;2023-11-19T10:25:25;7.38;;;4.00;;
56299;SDS011;42209;6.376;-10.782;2023-11-19T10:27:55;8.88;;;3.90;;
56299;SDS011;42209;6.376;-10.782;2023-11-19T10:30:25;6.32;;;3.33;;
56299;SDS011;42209;6.376;-10.782;2023-11-19T10:35:51;6.28;;;3.65;;
56299;SDS011;42209;6.376;-10.782;2023-11-19T10:38:26;6.45;;;4.32;;
56299;SDS011;42209;6.376;-10.782;2023-11-19T10:40:55;8.15;;;4.28;;
56299;SDS011;42209;6.376;-10.782;2023-11-19T10:43:24;9.18;;;4.45;;
56299;SDS011;42209;6.376;-10.782;2023-11-19T10:45:53;8.93;;;4.22;;
56299;SDS011;42209;6.376;-10.782;2023-11-19T10:48:21;9.57;;;5.65;;
56299;SDS011;42209;6.376;-10.782;2023-11-19T10:50:53;10.95;;;5.85;;
56299;SDS011;42209;6.376;-10.782;2023-11-19T10:53:21;11.38;;;5.88;;
56299;SDS011;42209;6.376;-10.782;2023-11-19T10:55:52;9.65;;;5.57;;
56299;SDS011;42209;6.376;-10.782;2023-11-19T10:58:24;9.32;;;4.63;;
56299;SDS011;42209;6.376;-10.782;2023-11-19T11:00:57;8.18;;;4.20;;
56299;SDS011;42209;6.376;-10.782;2023-11-19T11:03:29;8.30;;;4.53;;
56299;SDS011;42209;6.376;-10.782;2023-11-19T11:06:06;8.27;;;4.45;;
56299;SDS011;42209;6.376;-10.782;2023-11-19T11:08:39;8.48;;;3.88;;
56299;SDS011;42209;6.376;-10.782;2023-11-19T11:11:08;7.57;;;4.03;;
56299;SDS011;42209;6.376;-10.782;2023-11-19T11:13:41;8.98;;;4.22;;
56299;SDS011;42209;6.376;-10.782;2023-11-19T11:16:12;11.73;;;4.07;;
56299;SDS011;42209;6.376;-10.782;2023-11-19T11:18:43;10.82;;;3.95;;
56299;SDS011;42209;6.376;-10.782;2023-11-19T11:21:15;5.93;;;3.35;;
56299;SDS011;42209;6.376;-10.782;2023-11-19T11:27:10;8.10;;;4.50;;
56299;SDS011;42209;6.376;-10.782;2023-11-19T11:33:06;8.98;;;3.72;;
56299;SDS011;42209;6.376;-10.782;2023-11-19T11:35:55;6.25;;;3.75;;
56299;SDS011;42209;6.376;-10.782;2023-11-19T11:38:36;8.70;;;3.55;;
56299;SDS011;42209;6.376;-10.782;2023-11-19T11:41:18;6.55;;;3.05;;
56299;SDS011;42209;6.376;-10.782;2023-11-19T11:43:51;8.23;;;4.05;;
56299;SDS011;42209;6.376;-10.782;2023-11-19T11:49:02;5.40;;;3.10;;
56299;SDS011;42209;6.376;-10.782;2023-11-19T12:02:13;6.68;;;3.53;;
56299;SDS011;42209;6.376;-10.782;2023-11-19T12:04:48;7.43;;;3.28;;
56299;SDS011;42209;6.376;-10.782;2023-11-19T12:07:21;6.43;;;3.72;;
56299;SDS011;42209;6.376;-10.782;2023-11-19T12:10:07;7.35;;;3.15;;
56299;SDS011;42209;6.376;-10.782;2023-11-19T12:12:37;9.02;;;3.28;;
56299;SDS011;42209;6.376;-10.782;2023-11-19T12:17:41;7.00;;;3.28;;
56299;SDS011;42209;6.376;-10.782;2023-11-19T12:20:11;10.32;;;4.03;;
56299;SDS011;42209;6.376;-10.782;2023-11-19T12:22:42;6.65;;;3.50;;
56299;SDS011;42209;6.376;-10.782;2023-11-19T12:25:12;7.80;;;3.47;;
56299;SDS011;42209;6.376;-10.782;2023-11-19T12:27:42;6.63;;;3.13;;
56299;SDS011;42209;6.376;-10.782;2023-11-19T12:30:16;6.80;;;3.40;;
56299;SDS011;42209;6.376;-10.782;2023-11-19T12:32:49;5.80;;;3.13;;
56299;SDS011;42209;6.376;-10.782;2023-11-19T12:35:18;5.07;;;2.63;;
56299;SDS011;42209;6.376;-10.782;2023-11-19T12:37:47;7.07;;;3.47;;
56299;SDS011;42209;6.376;-10.782;2023-11-19T12:40:17;8.07;;;3.30;;
56299;SDS011;42209;6.376;-10.782;2023-11-19T12:42:53;6.65;;;3.22;;
56299;SDS011;42209;6.376;-10.782;2023-11-19T12:45:22;8.55;;;3.50;;
56299;SDS011;42209;6.376;-10.782;2023-11-19T12:48:07;5.70;;;2.97;;
56299;SDS011;42209;6.376;-10.782;2023-11-19T12:53:25;6.38;;;3.50;;
56299;SDS011;42209;6.376;-10.782;2023-11-19T12:55:54;5.72;;;3.58;;
56299;SDS011;42209;6.376;-10.782;2023-11-19T13:01:05;5.20;;;3.17;;
56299;SDS011;42209;6.376;-10.782;2023-11-19T13:03:35;9.13;;;3.97;;
56299;SDS011;42209;6.376;-10.782;2023-11-19T13:06:08;6.28;;;2.75;;
56299;SDS011;42209;6.376;-10.782;2023-11-19T13:08:38;6.68;;;3.40;;
56299;SDS011;42209;6.376;-10.782;2023-11-19T13:11:08;6.07;;;3.60;;
56299;SDS011;42209;6.376;-10.782;2023-11-19T13:16:42;6.07;;;3.53;;
56299;SDS011;42209;6.376;-10.782;2023-11-19T13:19:10;6.65;;;3.38;;
56299;SDS011;42209;6.376;-10.782;2023-11-19T13:21:39;7.18;;;3.28;;
56299;SDS011;42209;6.376;-10.782;2023-11-19T13:24:08;6.80;;;3.20;;
56299;SDS011;42209;6.376;-10.782;2023-11-19T13:26:36;5.85;;;3.17;;
56299;SDS011;42209;6.376;-10.782;2023-11-19T13:29:05;4.70;;;2.95;;
56299;SDS011;42209;6.376;-10.782;2023-11-19T13:31:33;6.65;;;3.40;;
56299;SDS011;42209;6.376;-10.782;2023-11-19T13:34:02;5.55;;;3.47;;
56299;SDS011;42209;6.376;-10.782;2023-11-19T13:38:59;5.88;;;2.85;;
56299;SDS011;42209;6.376;-10.782;2023-11-19T13:43:56;5.85;;;2.60;;
56299;SDS011;42209;6.376;-10.782;2023-11-19T13:46:24;8.55;;;2.35;;
56299;SDS011;42209;6.376;-10.782;2023-11-19T13:48:53;5.85;;;2.80;;
56299;SDS011;42209;6.376;-10.782;2023-11-19T13:51:21;6.47;;;2.33;;
56299;SDS011;42209;6.376;-10.782;2023-11-19T13:53:50;4.13;;;2.83;;
56299;SDS011;42209;6.376;-10.782;2023-11-19T13:56:18;5.55;;;2.97;;
56299;SDS011;42209;6.376;-10.782;2023-11-19T13:58:47;5.40;;;2.83;;
56299;SDS011;42209;6.376;-10.782;2023-11-19T14:03:44;5.10;;;2.63;;
56299;SDS011;42209;6.376;-10.782;2023-11-19T14:06:12;10.15;;;2.75;;
56299;SDS011;42209;6.376;-10.782;2023-11-19T14:08:41;6.40;;;3.35;;
56299;SDS011;42209;6.376;-10.782;2023-11-19T14:11:09;8.52;;;3.08;;
56299;SDS011;42209;6.376;-10.782;2023-11-19T14:13:38;6.13;;;3.45;;
56299;SDS011;42209;6.376;-10.782;2023-11-19T14:16:06;8.13;;;3.50;;
56299;SDS011;42209;6.376;-10.782;2023-11-19T14:18:36;6.45;;;3.72;;
56299;SDS011;42209;6.376;-10.782;2023-11-19T14:23:33;5.10;;;3.17;;
56299;SDS011;42209;6.376;-10.782;2023-11-19T14:26:01;5.95;;;3.00;;
56299;SDS011;42209;6.376;-10.782;2023-11-19T14:28:30;5.95;;;3.10;;
56299;SDS011;42209;6.376;-10.782;2023-11-19T14:31:01;7.57;;;3.72;;
56299;SDS011;42209;6.376;-10.782;2023-11-19T14:33:30;4.88;;;2.22;;
56299;SDS011;42209;6.376;-10.782;2023-11-19T14:35:58;10.68;;;3.92;;
56299;SDS011;42209;6.376;-10.782;2023-11-19T14:38:27;5.82;;;3.03;;
56299;SDS011;42209;6.376;-10.782;2023-11-19T14:43:25;8.15;;;3.00;;
56299;SDS011;42209;6.376;-10.782;2023-11-19T14:48:24;5.43;;;3.08;;
56299;SDS011;42209;6.376;-10.782;2023-11-19T14:50:52;8.98;;;3.10;;
56299;SDS011;42209;6.376;-10.782;2023-11-19T14:55:49;4.90;;;3.25;;
56299;SDS011;42209;6.376;-10.782;2023-11-19T14:58:18;6.72;;;3.05;;
56299;SDS011;42209;6.376;-10.782;2023-11-19T15:00:46;5.57;;;3.22;;
56299;SDS011;42209;6.376;-10.782;2023-11-19T15:03:15;7.03;;;3.28;;
56299;SDS011;42209;6.376;-10.782;2023-11-19T15:05:44;5.05;;;2.38;;
56299;SDS011;42209;6.376;-10.782;2023-11-19T15:08:13;6.95;;;2.83;;
56299;SDS011;42209;6.376;-10.782;2023-11-19T15:10:42;7.13;;;2.15;;
56299;SDS011;42209;6.376;-10.782;2023-11-19T15:15:39;4.80;;;3.00;;
56299;SDS011;42209;6.376;-10.782;2023-11-19T15:18:07;6.70;;;2.97;;
56299;SDS011;42209;6.376;-10.782;2023-11-19T15:23:04;5.97;;;2.60;;
56299;SDS011;42209;6.376;-10.782;2023-11-19T15:25:35;5.50;;;2.22;;
56299;SDS011;42209;6.376;-10.782;2023-11-19T15:28:03;4.95;;;2.38;;
56299;SDS011;42209;6.376;-10.782;2023-11-19T15:30:32;8.40;;;2.40;;
56299;SDS011;42209;6.376;-10.782;2023-11-19T15:33:01;4.75;;;2.70;;
56299;SDS011;42209;6.376;-10.782;2023-11-19T15:40:26;8.27;;;3.17;;
56299;SDS011;42209;6.376;-10.782;2023-11-19T15:42:55;8.48;;;3.25;;
56299;SDS011;42209;6.376;-10.782;2023-11-19T15:45:23;4.55;;;2.67;;
56299;SDS011;42209;6.376;-10.782;2023-11-19T15:47:52;4.70;;;2.30;;
56299;SDS011;42209;6.376;-10.782;2023-11-19T15:52:59;4.57;;;2.40;;
56299;SDS011;42209;6.376;-10.782;2023-11-19T15:57:56;5.75;;;3.22;;
56299;SDS011;42209;6.376;-10.782;2023-11-19T16:00:25;7.03;;;3.47;;
56299;SDS011;42209;6.376;-10.782;2023-11-19T16:02:53;6.25;;;2.78;;
56299;SDS011;42209;6.376;-10.782;2023-11-19T16:05:22;3.40;;;2.38;;
56299;SDS011;42209;6.376;-10.782;2023-11-19T16:10:19;5.65;;;2.13;;
56299;SDS011;42209;6.376;-10.782;2023-11-19T16:12:52;7.55;;;3.13;;
56299;SDS011;42209;6.376;-10.782;2023-11-19T16:15:20;4.70;;;2.45;;
56299;SDS011;42209;6.376;-10.782;2023-11-19T16:17:52;5.88;;;2.35;;
56299;SDS011;42209;6.376;-10.782;2023-11-19T16:20:21;6.10;;;2.63;;
56299;SDS011;42209;6.376;-10.782;2023-11-19T16:22:50;7.35;;;2.72;;
56299;SDS011;42209;6.376;-10.782;2023-11-19T16:25:18;4.03;;;2.20;;
56299;SDS011;42209;6.376;-10.782;2023-11-19T16:27:47;5.75;;;2.80;;
56299;SDS011;42209;6.376;-10.782;2023-11-19T16:30:15;6.20;;;2.58;;
56299;SDS011;42209;6.376;-10.782;2023-11-19T16:32:53;5.88;;;2.65;;
56299;SDS011;42209;6.376;-10.782;2023-11-19T16:35:25;5.15;;;2.67;;
56299;SDS011;42209;6.376;-10.782;2023-11-19T16:40:22;5.18;;;2.55;;
56299;SDS011;42209;6.376;-10.782;2023-11-19T16:45:19;5.30;;;2.47;;
56299;SDS011;42209;6.376;-10.782;2023-11-19T16:47:48;6.32;;;2.42;;
56299;SDS011;42209;6.376;-10.782;2023-11-19T16:52:45;5.38;;;2.35;;
56299;SDS011;42209;6.376;-10.782;2023-11-19T16:57:42;4.70;;;2.03;;
56299;SDS011;42209;6.376;-10.782;2023-11-19T17:00:11;6.40;;;2.33;;
56299;SDS011;42209;6.376;-10.782;2023-11-19T17:02:40;4.50;;;2.20;;
56299;SDS011;42209;6.376;-10.782;2023-11-19T17:05:11;4.35;;;1.90;;
56299;SDS011;42209;6.376;-10.782;2023-11-19T17:07:40;4.13;;;2.30;;
56299;SDS011;42209;6.376;-10.782;2023-11-19T17:10:09;6.13;;;2.67;;
56299;SDS011;42209;6.376;-10.782;2023-11-19T17:12:38;4.75;;;2.13;;
56299;SDS011;42209;6.376;-10.782;2023-11-19T17:17:37;6.15;;;2.35;;
56299;SDS011;42209;6.376;-10.782;2023-11-19T17:20:06;4.30;;;1.98;;
56299;SDS011;42209;6.376;-10.782;2023-11-19T17:22:36;5.97;;;2.03;;
56299;SDS011;42209;6.376;-10.782;2023-11-19T17:25:06;4.07;;;2.13;;
56299;SDS011;42209;6.376;-10.782;2023-11-19T17:27:35;4.22;;;2.08;;
56299;SDS011;42209;6.376;-10.782;2023-11-19T17:30:04;6.85;;;2.58;;